Hlavní strana
METAR-TAF:

METAR-TAF

Letiště :

Førde, Norsko

zeměpisná šířka: 61-27N, zeměpisná délka: 005-52E, výška: 150 m

Aktuální stav počasí

Zpráva byla vytvořena před 19 minutami, v 10:50 UTC
Východní vítr 6 kt
Teplota 0°C
Vlhkost vzduchu 69%
Tlak 1001 hPa
Viditelnost 10 km a více
Polojasno ve výšce 5000 ft
Oblačno až skoro zataženo ve výšce 7000 ft

METAR: ENBL 221050Z 08006KT 9999 SCT050 BKN070 00/M05 Q1001

Čas: 12:09 (11:09 UTC)


TAF: chybějící

Stav a předpovědi počasí z více než 4 000 letišť (zprávy METAR a TAF).

Červené a žluté tečky na mapě představují dostupné meteorologické stanice.

Když kurzor umístíte na tečku, zobrazí se název stanice.

Pak kliknutím zobrazíte stav a předpověď počasí.

Chcete-li změnit mapu, kliknutím na zelené tlačítko se znaménkem +mapu přiblížíte, kliknutím na zelené tlačítko se znaménkem – mapu oddálíte a kliknutím na zelené šipky přejdete na sousední mapy.


METAR-TAF: